createdAt,value
2018-11-10T00:01:23.048Z,15.10
2018-11-10T00:03:50.802Z,15.90
2018-11-10T00:06:18.691Z,15.80
2018-11-10T00:08:46.387Z,15.70
2018-11-10T00:11:14.051Z,15.80
2018-11-10T00:13:41.765Z,15.90
2018-11-10T00:16:09.478Z,15.80
2018-11-10T00:18:37.243Z,15.10
2018-11-10T00:21:05.023Z,15.00
2018-11-10T00:23:33.266Z,14.70
2018-11-10T00:26:01.957Z,14.60
2018-11-10T00:28:29.995Z,14.70
2018-11-10T00:30:59.154Z,15.00
2018-11-10T00:33:27.661Z,15.50
2018-11-10T00:35:55.487Z,15.70
2018-11-10T00:38:23.700Z,15.60
2018-11-10T00:40:52.107Z,15.70
2018-11-10T00:43:19.847Z,15.30
2018-11-10T00:45:47.714Z,15.10
2018-11-10T00:48:16.660Z,15.30
2018-11-10T00:50:44.587Z,15.60
2018-11-10T00:53:12.655Z,15.10
2018-11-10T00:55:40.456Z,15.00
2018-11-10T00:58:08.172Z,14.70
2018-11-10T01:00:35.973Z,15.00
2018-11-10T01:03:03.946Z,14.90
2018-11-10T01:05:31.699Z,14.70
2018-11-10T01:07:59.596Z,14.70
2018-11-10T01:10:27.505Z,14.80
2018-11-10T01:12:55.305Z,14.40
2018-11-10T01:15:23.061Z,13.60
2018-11-10T01:17:51.457Z,14.10
2018-11-10T01:20:19.174Z,13.50
2018-11-10T01:22:46.894Z,13.70
2018-11-10T01:25:14.972Z,13.60
2018-11-10T01:27:43.208Z,13.90
2018-11-10T01:30:13.320Z,13.50
2018-11-10T01:32:41.614Z,13.80
2018-11-10T01:35:09.460Z,13.40
2018-11-10T01:37:37.450Z,13.40
2018-11-10T01:40:06.791Z,13.40
2018-11-10T01:42:34.563Z,13.90
2018-11-10T01:45:02.317Z,13.40
2018-11-10T01:47:30.181Z,13.40
2018-11-10T01:49:58.328Z,13.40
2018-11-10T01:52:26.473Z,13.30
2018-11-10T01:54:54.578Z,13.40
2018-11-10T01:57:22.584Z,13.20
2018-11-10T01:59:50.801Z,13.30
2018-11-10T02:02:18.880Z,13.20
2018-11-10T02:04:47.631Z,13.10
2018-11-10T02:07:15.507Z,13.30
2018-11-10T02:09:43.721Z,12.60
2018-11-10T02:12:11.716Z,12.60
2018-11-10T02:14:39.680Z,12.30
2018-11-10T02:17:07.672Z,12.80
2018-11-10T02:19:35.623Z,13.20
2018-11-10T02:22:03.459Z,13.50
2018-11-10T02:24:31.433Z,13.20
2018-11-10T02:27:00.717Z,12.60
2018-11-10T02:29:29.032Z,12.70
2018-11-10T02:31:56.898Z,12.60
2018-11-10T02:34:24.774Z,12.50
2018-11-10T02:36:52.936Z,12.00
2018-11-10T02:39:20.863Z,11.50
2018-11-10T02:41:49.006Z,11.60
2018-11-10T02:44:17.175Z,11.20
2018-11-10T02:46:45.083Z,11.50
2018-11-10T02:49:13.221Z,11.40
2018-11-10T02:51:41.087Z,11.20
2018-11-10T02:54:08.827Z,10.20
2018-11-10T02:56:36.720Z,10.30
2018-11-10T02:59:04.724Z,9.80
2018-11-10T03:01:32.601Z,9.90
2018-11-10T03:04:00.653Z,10.10
2018-11-10T03:06:28.749Z,10.00
2018-11-10T03:08:56.785Z,9.40
2018-11-10T03:11:24.630Z,8.60
2018-11-10T03:13:52.499Z,8.40
2018-11-10T03:16:20.372Z,8.50
2018-11-10T03:18:48.171Z,7.90
2018-11-10T03:21:16.112Z,7.70
2018-11-10T03:23:43.952Z,7.80
2018-11-10T03:26:11.971Z,7.10
2018-11-10T03:28:40.017Z,7.10
2018-11-10T03:31:07.907Z,6.70
2018-11-10T03:33:36.038Z,7.00
2018-11-10T03:36:03.928Z,6.40
2018-11-10T03:38:31.929Z,6.50
2018-11-10T03:40:59.993Z,5.60
2018-11-10T03:43:28.020Z,5.70
2018-11-10T03:45:56.078Z,5.70
2018-11-10T03:48:24.138Z,5.80
2018-11-10T03:50:52.354Z,5.40
2018-11-10T03:53:20.388Z,4.80
2018-11-10T03:55:48.384Z,5.10
2018-11-10T03:58:16.558Z,5.10
2018-11-10T04:00:44.595Z,4.80
2018-11-10T04:03:13.459Z,3.80
2018-11-10T04:05:41.609Z,3.60
2018-11-10T04:08:09.500Z,3.70
2018-11-10T04:10:37.502Z,3.80
2018-11-10T04:13:05.645Z,3.90
2018-11-10T04:15:33.643Z,4.60
2018-11-10T04:18:02.070Z,4.60
2018-11-10T04:20:30.058Z,3.90
2018-11-10T04:22:57.985Z,3.90
2018-11-10T04:25:26.141Z,4.30
2018-11-10T04:27:54.085Z,4.80
2018-11-10T04:30:24.780Z,5.20
2018-11-10T04:32:52.887Z,5.20
2018-11-10T04:35:20.819Z,5.30
2018-11-10T04:37:48.672Z,4.90
2018-11-10T04:40:16.698Z,4.20
2018-11-10T04:42:45.058Z,4.00
2018-11-10T04:45:13.262Z,4.40
2018-11-10T04:47:41.284Z,4.00
2018-11-10T04:53:13.458Z,4.00
2018-11-10T04:55:41.326Z,4.00
2018-11-10T04:58:09.158Z,4.00
2018-11-10T05:00:37.042Z,3.90
2018-11-10T05:03:05.097Z,3.90
2018-11-10T05:05:32.943Z,3.90
2018-11-10T05:08:00.835Z,4.00
2018-11-10T05:10:28.775Z,2.70
2018-11-10T05:12:56.606Z,3.20
2018-11-10T05:15:24.636Z,2.40
2018-11-10T05:17:52.605Z,1.70
2018-11-10T05:20:20.529Z,1.70
2018-11-10T05:22:48.373Z,1.80
2018-11-10T05:25:16.309Z,2.50
2018-11-10T05:27:44.184Z,2.10
2018-11-10T05:30:12.401Z,1.80
2018-11-10T05:32:40.293Z,2.00
2018-11-10T05:35:08.782Z,1.40
2018-11-10T05:37:36.865Z,1.20
2018-11-10T05:40:05.721Z,1.30
2018-11-10T05:42:34.198Z,1.10
2018-11-10T05:45:02.174Z,1.00
2018-11-10T05:47:30.060Z,1.00
2018-11-10T05:49:57.924Z,1.00
2018-11-10T05:52:25.830Z,1.00
2018-11-10T05:54:53.727Z,1.00
2018-11-10T05:57:21.807Z,1.00
2018-11-10T05:59:49.893Z,1.00
2018-11-10T06:02:17.948Z,1.00
2018-11-10T06:04:52.559Z,1.00
2018-11-10T06:07:20.505Z,1.00
2018-11-10T06:09:49.526Z,1.00
2018-11-10T06:12:17.286Z,1.00
2018-11-10T06:14:44.972Z,1.00
2018-11-10T06:17:12.745Z,1.00
2018-11-10T06:19:40.415Z,1.00
2018-11-10T06:22:08.014Z,1.70
2018-11-10T06:24:35.661Z,2.70
2018-11-10T06:27:03.325Z,3.80
2018-11-10T06:29:30.996Z,3.70
2018-11-10T06:31:58.930Z,4.20
2018-11-10T06:34:26.574Z,4.10
2018-11-10T06:36:54.247Z,5.50
2018-11-10T06:39:22.354Z,6.70
2018-11-10T06:41:49.972Z,7.60
2018-11-10T06:44:17.842Z,8.90
2018-11-10T06:46:45.463Z,8.90
2018-11-10T06:49:13.182Z,9.00
2018-11-10T06:51:42.604Z,9.30
2018-11-10T06:54:10.355Z,10.40
2018-11-10T06:56:38.051Z,10.90
2018-11-10T06:59:06.221Z,11.10
2018-11-10T07:01:33.932Z,11.40
2018-11-10T07:04:01.823Z,11.50
2018-11-10T07:06:29.758Z,12.50
2018-11-10T07:08:57.465Z,11.70
2018-11-10T07:11:26.101Z,12.30
2018-11-10T07:13:53.848Z,12.40
2018-11-10T07:16:21.717Z,12.60
2018-11-10T07:18:49.472Z,13.20
2018-11-10T07:21:17.220Z,13.00
2018-11-10T07:23:45.417Z,13.10
2018-11-10T07:26:13.301Z,12.40
2018-11-10T07:28:41.079Z,12.50
2018-11-10T07:31:08.834Z,12.80
2018-11-10T07:33:36.593Z,13.40
2018-11-10T07:36:04.757Z,13.90
2018-11-10T07:38:32.506Z,14.10
2018-11-10T07:41:00.318Z,14.10
2018-11-10T07:43:28.363Z,15.00
2018-11-10T07:45:56.100Z,15.90
2018-11-10T07:48:23.858Z,16.90
2018-11-10T07:50:51.617Z,16.50
2018-11-10T07:53:19.458Z,17.00
2018-11-10T07:55:47.202Z,17.30
2018-11-10T07:58:14.940Z,18.00
2018-11-10T08:00:42.642Z,18.10
2018-11-10T08:03:10.421Z,17.80
2018-11-10T08:05:38.184Z,17.60
2018-11-10T08:08:06.175Z,17.40
2018-11-10T08:10:34.089Z,18.10
2018-11-10T08:13:01.821Z,17.90
2018-11-10T08:15:29.591Z,17.40
2018-11-10T08:17:57.301Z,16.80
2018-11-10T08:20:24.990Z,16.10
2018-11-10T08:22:52.715Z,16.00
2018-11-10T08:25:21.091Z,16.00
2018-11-10T08:27:48.806Z,16.00
2018-11-10T08:30:16.551Z,15.50
2018-11-10T08:32:44.385Z,15.40
2018-11-10T08:35:13.313Z,14.90
2018-11-10T08:37:41.193Z,15.70
2018-11-10T08:40:17.273Z,15.70
2018-11-10T08:42:45.220Z,15.40
2018-11-10T08:45:16.336Z,15.60
2018-11-10T08:47:44.638Z,15.50
2018-11-10T08:50:13.529Z,15.80
2018-11-10T08:52:41.811Z,15.80
2018-11-10T08:55:10.498Z,15.10
2018-11-10T08:57:38.227Z,14.20
2018-11-10T09:00:06.716Z,14.90
2018-11-10T09:02:34.486Z,15.00
2018-11-10T09:05:02.202Z,14.50
2018-11-10T09:07:29.905Z,15.00
2018-11-10T09:09:57.631Z,15.40
2018-11-10T09:12:25.211Z,15.70
2018-11-10T09:14:52.897Z,15.50
2018-11-10T09:17:22.476Z,14.60
2018-11-10T09:19:50.145Z,14.90
2018-11-10T09:22:17.777Z,15.20
2018-11-10T09:24:45.745Z,15.00
2018-11-10T09:27:13.496Z,15.00
2018-11-10T09:29:42.206Z,15.20
2018-11-10T09:32:09.991Z,15.40
2018-11-10T09:37:10.120Z,15.30
2018-11-10T09:39:38.233Z,15.00
2018-11-10T09:42:06.067Z,14.90
2018-11-10T09:44:33.670Z,15.10
2018-11-10T09:47:01.422Z,14.40
2018-11-10T09:49:29.395Z,15.30
2018-11-10T09:51:57.099Z,14.80
2018-11-10T09:54:24.766Z,15.00
2018-11-10T09:56:52.418Z,14.80
2018-11-10T09:59:20.099Z,16.20
2018-11-10T10:01:48.173Z,15.80
2018-11-10T10:04:15.504Z,15.60
2018-11-10T10:06:43.139Z,16.70
2018-11-10T10:09:11.968Z,17.00
2018-11-10T10:11:40.319Z,17.70
2018-11-10T10:14:08.841Z,17.40
2018-11-10T10:16:36.555Z,17.80
2018-11-10T10:19:04.435Z,18.60
2018-11-10T10:21:32.117Z,18.00
2018-11-10T10:23:59.719Z,18.80
2018-11-10T10:26:27.336Z,18.80
2018-11-10T10:28:55.039Z,18.50
2018-11-10T10:31:22.778Z,18.70
2018-11-10T10:33:50.562Z,18.80
2018-11-10T10:36:18.304Z,19.50
2018-11-10T10:38:49.164Z,18.80
2018-11-10T10:41:17.327Z,18.90
2018-11-10T10:43:45.052Z,18.50
2018-11-10T10:46:13.020Z,18.80
2018-11-10T10:48:40.833Z,18.30
2018-11-10T10:51:08.580Z,18.30
2018-11-10T10:53:36.639Z,18.10
2018-11-10T10:56:05.634Z,17.60
2018-11-10T10:58:33.370Z,17.30
2018-11-10T11:01:06.902Z,17.30
2018-11-10T11:03:40.682Z,16.80
2018-11-10T11:06:08.544Z,17.30
2018-11-10T11:08:36.262Z,16.70
2018-11-10T11:11:03.934Z,17.00
2018-11-10T11:13:31.707Z,17.10
2018-11-10T11:15:59.496Z,16.80
2018-11-10T11:18:27.514Z,17.10
2018-11-10T11:20:55.329Z,17.30
2018-11-10T11:23:23.161Z,16.90
2018-11-10T11:25:51.103Z,17.00
2018-11-10T11:28:18.808Z,17.60
2018-11-10T11:30:46.619Z,18.10
2018-11-10T11:33:15.007Z,18.50
2018-11-10T11:35:42.952Z,19.10
2018-11-10T11:38:10.802Z,19.60
2018-11-10T11:40:38.631Z,19.10
2018-11-10T11:43:06.322Z,19.90
2018-11-10T11:45:34.093Z,19.10
2018-11-10T11:48:01.869Z,19.60
2018-11-10T11:50:29.858Z,19.70
2018-11-10T11:52:57.686Z,20.10
2018-11-10T11:55:25.588Z,19.80
2018-11-10T11:57:53.576Z,19.80
2018-11-10T12:00:21.335Z,19.70
2018-11-10T12:02:49.403Z,19.60
2018-11-10T12:05:17.685Z,20.00
2018-11-10T12:07:46.052Z,19.80
2018-11-10T12:10:14.948Z,19.60
2018-11-10T12:12:42.683Z,19.20
2018-11-10T12:15:12.069Z,19.00
2018-11-10T12:17:39.991Z,19.10
2018-11-10T12:20:09.170Z,18.90
2018-11-10T12:22:37.089Z,18.60
2018-11-10T12:25:05.412Z,18.10
2018-11-10T12:27:33.281Z,18.00
2018-11-10T12:30:01.018Z,17.60
2018-11-10T12:32:29.205Z,17.50
2018-11-10T12:34:57.076Z,16.80
2018-11-10T12:37:24.841Z,16.50
2018-11-10T12:39:52.543Z,16.80
2018-11-10T12:42:20.255Z,17.20
2018-11-10T12:44:48.078Z,17.10
2018-11-10T12:47:16.086Z,17.40
2018-11-10T12:49:43.851Z,17.20
2018-11-10T12:52:12.147Z,17.40
2018-11-10T12:54:39.761Z,17.30
2018-11-10T12:57:07.418Z,17.50
2018-11-10T12:59:36.026Z,18.80
2018-11-10T13:02:03.899Z,19.10
2018-11-10T13:04:31.536Z,19.50
2018-11-10T13:06:59.518Z,19.80
2018-11-10T13:09:27.112Z,20.70
2018-11-10T13:11:54.984Z,20.30
2018-11-10T13:14:23.565Z,20.60
2018-11-10T13:16:51.511Z,21.70
2018-11-10T13:19:19.163Z,22.60
2018-11-10T13:21:46.834Z,23.40
2018-11-10T13:24:14.536Z,24.90
2018-11-10T13:26:42.271Z,25.30
2018-11-10T13:29:10.058Z,26.30
2018-11-10T13:31:37.810Z,27.50
2018-11-10T13:34:05.606Z,27.60
2018-11-10T13:36:33.577Z,29.30
2018-11-10T13:39:01.272Z,30.20
2018-11-10T13:41:29.063Z,30.30
2018-11-10T13:43:57.189Z,31.70
2018-11-10T13:46:25.213Z,32.00
2018-11-10T13:48:52.844Z,32.50
2018-11-10T13:51:20.595Z,32.60
2018-11-10T13:53:48.148Z,32.80
2018-11-10T13:56:16.019Z,33.10
2018-11-10T13:58:43.703Z,32.50
2018-11-10T14:01:11.568Z,32.30
2018-11-10T14:03:39.188Z,33.00
2018-11-10T14:06:07.530Z,34.40
2018-11-10T14:08:35.130Z,33.70
2018-11-10T14:11:02.777Z,32.90
2018-11-10T14:13:30.583Z,33.40
2018-11-10T14:15:58.298Z,33.30
2018-11-10T14:18:25.933Z,33.70
2018-11-10T14:20:53.609Z,33.30
2018-11-10T14:23:21.391Z,33.10
2018-11-10T14:25:49.036Z,32.80
2018-11-10T14:28:16.762Z,32.20
2018-11-10T14:30:44.469Z,32.80
2018-11-10T14:33:12.326Z,33.80
2018-11-10T14:35:39.963Z,34.10
2018-11-10T14:38:07.702Z,34.40
2018-11-10T14:40:35.494Z,34.40
2018-11-10T14:43:03.221Z,33.60
2018-11-10T14:45:30.859Z,33.90
2018-11-10T14:47:58.547Z,33.60
2018-11-10T14:50:26.331Z,33.40
2018-11-10T14:52:54.140Z,33.20
2018-11-10T14:55:21.894Z,33.20
2018-11-10T14:57:49.723Z,34.10
2018-11-10T15:00:19.172Z,34.90
2018-11-10T15:02:46.906Z,34.40
2018-11-10T15:05:14.694Z,34.20
2018-11-10T15:07:43.204Z,34.10
2018-11-10T15:10:15.367Z,33.20
2018-11-10T15:12:43.809Z,33.70
2018-11-10T15:15:12.727Z,33.80
2018-11-10T15:17:40.702Z,34.10
2018-11-10T15:20:09.684Z,34.10
2018-11-10T15:22:37.693Z,33.70
2018-11-10T15:25:07.318Z,34.00
2018-11-10T15:27:35.263Z,33.40
2018-11-10T15:30:03.589Z,32.80
2018-11-10T15:32:31.709Z,33.00
2018-11-10T15:34:59.682Z,33.10
2018-11-10T15:37:27.627Z,33.70
2018-11-10T15:39:55.478Z,33.40
2018-11-10T15:42:23.675Z,34.10
2018-11-10T15:44:51.851Z,35.40
2018-11-10T15:47:19.911Z,35.40
2018-11-10T15:49:47.804Z,35.40
2018-11-10T15:52:15.625Z,35.10
2018-11-10T15:54:43.504Z,35.40
2018-11-10T15:57:11.612Z,34.70
2018-11-10T15:59:39.618Z,34.70
2018-11-10T16:02:07.389Z,35.30
2018-11-10T16:04:35.394Z,35.30
2018-11-10T16:07:03.224Z,34.70
2018-11-10T16:09:42.329Z,34.00
2018-11-10T16:12:10.293Z,33.90
2018-11-10T16:14:44.954Z,35.30
2018-11-10T16:17:24.120Z,35.00
2018-11-10T16:19:52.176Z,35.30
2018-11-10T16:22:20.261Z,34.50
2018-11-10T16:24:48.299Z,34.60
2018-11-10T16:27:16.195Z,35.30
2018-11-10T16:29:44.084Z,35.20
2018-11-10T16:32:12.074Z,35.20
2018-11-10T16:34:40.122Z,35.20
2018-11-10T16:37:08.444Z,35.30
2018-11-10T16:39:36.294Z,35.40
2018-11-10T16:42:05.003Z,36.70
2018-11-10T16:44:32.920Z,36.70
2018-11-10T16:47:00.895Z,37.40
2018-11-10T16:49:28.796Z,38.50
2018-11-10T16:51:56.969Z,38.80
2018-11-10T16:54:24.896Z,39.70
2018-11-10T16:56:53.005Z,40.20
2018-11-10T16:59:21.047Z,40.70
2018-11-10T17:01:49.113Z,41.00
2018-11-10T17:04:17.097Z,42.10
2018-11-10T17:06:45.466Z,41.90
2018-11-10T17:09:13.684Z,41.70
2018-11-10T17:11:41.686Z,42.00
2018-11-10T17:14:10.631Z,42.30
2018-11-10T17:16:39.090Z,41.20
2018-11-10T17:19:07.789Z,41.20
2018-11-10T17:21:35.798Z,39.90
2018-11-10T17:24:04.206Z,38.30
2018-11-10T17:26:32.306Z,38.60
2018-11-10T17:29:00.294Z,39.10
2018-11-10T17:31:28.250Z,38.70
2018-11-10T17:33:56.388Z,39.10
2018-11-10T17:36:24.381Z,38.60
2018-11-10T17:38:52.439Z,38.70
2018-11-10T17:41:20.933Z,39.20
2018-11-10T17:43:49.071Z,40.00
2018-11-10T17:46:17.149Z,39.70
2018-11-10T17:48:46.265Z,40.40
2018-11-10T17:51:14.226Z,40.00
2018-11-10T17:53:42.247Z,40.30
2018-11-10T17:56:10.210Z,41.10
2018-11-10T17:58:38.268Z,40.80
2018-11-10T18:01:06.296Z,40.50
2018-11-10T18:03:34.409Z,39.40
2018-11-10T18:06:02.674Z,37.20
2018-11-10T18:08:30.682Z,37.30
2018-11-10T18:10:58.709Z,37.40
2018-11-10T18:13:26.665Z,37.50
2018-11-10T18:15:54.560Z,37.50
2018-11-10T18:18:22.583Z,37.00
2018-11-10T18:20:50.490Z,36.00
2018-11-10T18:23:18.795Z,35.40
2018-11-10T18:25:46.749Z,35.40
2018-11-10T18:28:14.876Z,35.40
2018-11-10T18:30:42.770Z,35.40
2018-11-10T18:33:10.676Z,33.80
2018-11-10T18:35:38.627Z,34.20
2018-11-10T18:38:06.548Z,34.80
2018-11-10T18:40:34.517Z,34.10
2018-11-10T18:43:02.434Z,33.00
2018-11-10T18:45:30.470Z,32.70
2018-11-10T18:47:58.384Z,33.30
2018-11-10T18:50:26.337Z,33.20
2018-11-10T18:52:54.234Z,32.60
2018-11-10T18:55:22.403Z,32.20
2018-11-10T18:57:50.284Z,32.80
2018-11-10T19:00:18.137Z,32.40
2018-11-10T19:02:46.079Z,32.10
2018-11-10T19:05:15.421Z,31.90
2018-11-10T19:07:43.532Z,32.20
2018-11-10T19:10:12.817Z,33.50
2018-11-10T19:12:41.250Z,34.60
2018-11-10T19:15:12.177Z,35.30
2018-11-10T19:17:40.057Z,35.10
2018-11-10T19:20:08.452Z,35.40
2018-11-10T19:22:36.255Z,35.80
2018-11-10T19:25:04.771Z,36.40
2018-11-10T19:27:32.633Z,39.40
2018-11-10T19:30:00.624Z,41.40
2018-11-10T19:32:28.544Z,45.10
2018-11-10T19:34:56.425Z,47.60
2018-11-10T19:37:24.309Z,50.80
2018-11-10T19:39:52.350Z,50.80
2018-11-10T19:42:20.210Z,51.70
2018-11-10T19:44:48.056Z,52.90
2018-11-10T19:47:15.944Z,55.20
2018-11-10T19:49:43.899Z,56.40
2018-11-10T19:52:12.012Z,58.70
2018-11-10T19:54:39.815Z,58.90
2018-11-10T19:57:07.897Z,58.90
2018-11-10T19:59:35.842Z,60.40
2018-11-10T20:02:03.947Z,62.00
2018-11-10T20:04:31.952Z,62.20
2018-11-10T20:06:59.982Z,63.90
2018-11-10T20:09:27.900Z,63.90
2018-11-10T20:11:55.932Z,64.40
2018-11-10T20:14:24.000Z,64.00
2018-11-10T20:16:51.795Z,65.00
2018-11-10T20:19:24.727Z,66.40
2018-11-10T20:21:52.576Z,67.30
2018-11-10T20:24:20.507Z,67.90
2018-11-10T20:26:48.280Z,67.80
2018-11-10T20:29:15.996Z,68.80
2018-11-10T20:31:49.224Z,68.90
2018-11-10T20:34:18.046Z,68.90
2018-11-10T20:36:45.813Z,70.00
2018-11-10T20:39:13.662Z,70.20
2018-11-10T20:41:41.391Z,70.20
2018-11-10T20:44:09.101Z,71.80
2018-11-10T20:46:41.630Z,71.30
2018-11-10T20:49:09.434Z,71.80
2018-11-10T20:51:37.118Z,72.10
2018-11-10T20:54:05.001Z,72.80
2018-11-10T20:56:32.696Z,73.80
2018-11-10T20:59:00.530Z,73.70
2018-11-10T21:01:30.181Z,72.70
2018-11-10T21:03:57.932Z,71.40
2018-11-10T21:06:25.889Z,70.90
2018-11-10T21:08:53.680Z,70.30
2018-11-10T21:11:21.356Z,70.10
2018-11-10T21:13:49.154Z,70.90
2018-11-10T21:16:23.156Z,72.50
2018-11-10T21:18:50.938Z,72.60
2018-11-10T21:21:18.708Z,73.40
2018-11-10T21:23:48.478Z,73.60
2018-11-10T21:26:16.213Z,72.70
2018-11-10T21:28:47.699Z,73.40
2018-11-10T21:31:15.424Z,73.70
2018-11-10T21:33:43.167Z,73.70
2018-11-10T21:36:10.924Z,73.80
2018-11-10T21:38:38.713Z,74.50
2018-11-10T21:41:06.549Z,73.70
2018-11-10T21:43:39.303Z,73.10
2018-11-10T21:46:07.042Z,73.80
2018-11-10T21:48:34.796Z,73.70
2018-11-10T21:51:02.521Z,74.10
2018-11-10T21:53:30.286Z,74.80
2018-11-10T21:55:58.161Z,75.30
2018-11-10T21:58:28.563Z,75.00
2018-11-10T22:00:56.323Z,74.90
2018-11-10T22:03:24.075Z,75.40
2018-11-10T22:05:51.886Z,75.60
2018-11-10T22:08:19.563Z,75.50
2018-11-10T22:10:47.215Z,75.60
2018-11-10T22:13:22.592Z,75.70
2018-11-10T22:15:50.407Z,76.00
2018-11-10T22:18:18.065Z,76.20
2018-11-10T22:20:45.825Z,76.30
2018-11-10T22:23:13.838Z,77.10
2018-11-10T22:25:43.215Z,79.10
2018-11-10T22:28:10.879Z,78.80
2018-11-10T22:30:38.634Z,78.60
2018-11-10T22:33:06.332Z,78.30
2018-11-10T22:35:33.985Z,78.30
2018-11-10T22:38:04.697Z,76.40
2018-11-10T22:40:33.788Z,75.30
2018-11-10T22:43:01.535Z,74.70
2018-11-10T22:45:29.468Z,74.30
2018-11-10T22:47:57.231Z,74.00
2018-11-10T22:50:25.139Z,73.50
2018-11-10T22:55:25.507Z,72.50
2018-11-10T22:57:53.359Z,73.50
2018-11-10T23:00:23.522Z,72.70
2018-11-10T23:02:54.605Z,71.70
2018-11-10T23:05:26.742Z,71.40
2018-11-10T23:07:54.424Z,71.80
2018-11-10T23:10:22.343Z,71.20
2018-11-10T23:12:51.204Z,71.20
2018-11-10T23:15:18.876Z,70.00
2018-11-10T23:17:50.425Z,70.30
2018-11-10T23:20:18.804Z,70.20
2018-11-10T23:22:46.513Z,70.60
2018-11-10T23:25:15.552Z,70.30
2018-11-10T23:27:43.209Z,69.70
2018-11-10T23:30:16.242Z,68.90
2018-11-10T23:32:43.951Z,68.60
2018-11-10T23:35:12.390Z,68.80
2018-11-10T23:37:40.120Z,67.80
2018-11-10T23:40:09.553Z,66.80
2018-11-10T23:42:43.703Z,66.50
2018-11-10T23:45:12.166Z,66.60
2018-11-10T23:47:39.829Z,64.40
2018-11-10T23:50:09.482Z,63.70
2018-11-10T23:52:37.600Z,64.30
2018-11-10T23:55:05.849Z,63.20
2018-11-10T23:57:33.573Z,63.20
